createdAt,value
2023-03-29T00:02:03.996Z,4.70
2023-03-29T00:04:31.254Z,4.70
2023-03-29T00:06:58.068Z,4.70
2023-03-29T00:09:26.617Z,4.70
2023-03-29T00:11:53.392Z,4.70
2023-03-29T00:14:20.138Z,4.70
2023-03-29T00:16:47.142Z,4.70
2023-03-29T00:19:14.079Z,4.70
2023-03-29T00:21:40.877Z,4.70
2023-03-29T00:24:07.812Z,4.70
2023-03-29T00:26:34.471Z,4.70
2023-03-29T00:29:01.200Z,4.70
2023-03-29T00:31:28.454Z,4.70
2023-03-29T00:33:55.208Z,4.70
2023-03-29T00:36:23.283Z,4.70
2023-03-29T00:38:49.920Z,4.70
2023-03-29T00:41:16.632Z,4.70
2023-03-29T00:43:58.960Z,4.70
2023-03-29T00:46:27.794Z,4.60
2023-03-29T00:49:00.619Z,4.60
2023-03-29T00:51:30.572Z,4.70
2023-03-29T00:54:00.565Z,4.60
2023-03-29T00:56:35.164Z,4.50
2023-03-29T00:59:07.127Z,4.60
2023-03-29T01:01:43.173Z,4.60
2023-03-29T01:04:22.575Z,4.50
2023-03-29T01:06:56.974Z,4.50
2023-03-29T01:09:27.107Z,4.60
2023-03-29T01:12:01.600Z,4.60
2023-03-29T01:14:31.114Z,4.60
2023-03-29T01:16:57.889Z,4.60
2023-03-29T01:19:29.065Z,4.60
2023-03-29T01:22:08.656Z,4.60
2023-03-29T01:24:35.248Z,4.60
2023-03-29T01:27:35.089Z,4.50
2023-03-29T01:30:07.403Z,4.60
2023-03-29T01:32:35.433Z,4.60
2023-03-29T01:35:03.783Z,4.60
2023-03-29T01:37:56.809Z,4.60
2023-03-29T01:40:24.238Z,4.60
2023-03-29T01:43:08.785Z,4.60
2023-03-29T01:45:38.662Z,4.70
2023-03-29T01:48:19.239Z,4.60
2023-03-29T01:50:54.072Z,4.60
2023-03-29T01:53:34.533Z,4.60
2023-03-29T01:56:17.047Z,4.60
2023-03-29T01:58:49.496Z,4.60
2023-03-29T02:01:20.162Z,4.60
2023-03-29T02:03:50.776Z,4.50
2023-03-29T02:06:22.271Z,4.50
2023-03-29T02:08:50.396Z,4.50
2023-03-29T02:11:18.219Z,4.40
2023-03-29T02:13:45.040Z,4.40
2023-03-29T02:16:13.522Z,4.40
2023-03-29T02:18:43.733Z,4.40
2023-03-29T02:21:21.778Z,4.50
2023-03-29T02:23:50.534Z,4.50
2023-03-29T02:26:17.887Z,4.60
2023-03-29T02:28:44.585Z,4.60
2023-03-29T02:31:33.768Z,4.70
2023-03-29T02:34:03.366Z,4.70
2023-03-29T02:36:38.145Z,4.60
2023-03-29T02:39:06.308Z,4.60
2023-03-29T02:41:34.273Z,4.50
2023-03-29T02:44:04.220Z,4.40
2023-03-29T02:46:31.254Z,4.30
2023-03-29T02:48:58.900Z,4.20
2023-03-29T02:51:31.101Z,4.10
2023-03-29T02:54:06.342Z,4.00
2023-03-29T02:56:44.772Z,4.00
2023-03-29T02:59:12.255Z,3.90
2023-03-29T03:01:44.010Z,3.90
2023-03-29T03:04:12.271Z,3.90
2023-03-29T03:06:39.043Z,3.90
2023-03-29T03:09:06.521Z,3.90
2023-03-29T03:11:34.090Z,3.90
2023-03-29T03:14:00.886Z,3.90
2023-03-29T03:16:27.991Z,3.90
2023-03-29T03:18:55.635Z,3.90
2023-03-29T03:21:23.323Z,4.00
2023-03-29T03:23:50.280Z,4.10
2023-03-29T03:26:18.192Z,4.20
2023-03-29T03:28:45.716Z,4.30
2023-03-29T03:31:15.881Z,4.30
2023-03-29T03:33:42.782Z,4.30
2023-03-29T03:36:10.836Z,4.20
2023-03-29T03:38:38.489Z,4.20
2023-03-29T03:41:06.978Z,4.20
2023-03-29T03:43:34.532Z,4.20
2023-03-29T03:46:02.025Z,4.30
2023-03-29T03:48:28.898Z,4.40
2023-03-29T03:50:58.259Z,4.50
2023-03-29T03:53:26.246Z,4.50
2023-03-29T03:55:55.995Z,4.60
2023-03-29T03:58:23.248Z,4.60
2023-03-29T04:00:50.940Z,4.70
2023-03-29T04:03:18.441Z,4.70
2023-03-29T04:05:47.036Z,4.80
2023-03-29T04:08:14.908Z,4.70
2023-03-29T04:10:42.336Z,4.70
2023-03-29T04:13:08.949Z,4.50
2023-03-29T04:15:39.188Z,4.50
2023-03-29T04:18:07.589Z,4.40
2023-03-29T04:20:34.735Z,4.50
2023-03-29T04:23:01.655Z,4.50
2023-03-29T04:25:28.494Z,4.60
2023-03-29T04:27:56.060Z,4.60
2023-03-29T04:30:22.745Z,4.70
2023-03-29T04:32:49.521Z,4.80
2023-03-29T04:35:16.537Z,4.90
2023-03-29T04:37:43.558Z,5.00
2023-03-29T04:40:14.328Z,5.10
2023-03-29T04:42:44.316Z,5.10
2023-03-29T04:45:13.808Z,5.10
2023-03-29T04:47:42.058Z,5.20
2023-03-29T04:50:09.163Z,5.30
2023-03-29T04:52:36.104Z,5.30
2023-03-29T04:55:04.605Z,5.40
2023-03-29T04:57:31.437Z,5.40
2023-03-29T04:59:58.176Z,5.40
2023-03-29T05:02:24.854Z,5.50
2023-03-29T05:04:52.162Z,5.50
2023-03-29T05:07:19.458Z,5.50
2023-03-29T05:09:46.260Z,5.60
2023-03-29T05:12:13.177Z,5.60
2023-03-29T05:14:39.832Z,5.60
2023-03-29T05:17:06.585Z,5.70
2023-03-29T05:19:33.663Z,5.70
2023-03-29T05:22:00.740Z,5.70
2023-03-29T05:24:27.501Z,5.70
2023-03-29T05:26:54.412Z,5.80
2023-03-29T05:29:21.620Z,5.80
2023-03-29T05:31:48.359Z,5.80
2023-03-29T05:34:15.101Z,5.90
2023-03-29T05:36:42.829Z,5.90
2023-03-29T05:39:10.875Z,6.00
2023-03-29T05:41:37.909Z,6.00
2023-03-29T05:44:04.583Z,6.10
2023-03-29T05:46:31.479Z,6.10
2023-03-29T05:48:58.172Z,6.10
2023-03-29T05:51:24.872Z,6.10
2023-03-29T05:53:52.049Z,6.20
2023-03-29T05:56:19.104Z,6.20
2023-03-29T05:58:53.730Z,6.20
2023-03-29T06:01:22.542Z,6.30
2023-03-29T06:03:49.486Z,6.30
2023-03-29T06:06:16.752Z,6.40
2023-03-29T06:08:44.808Z,6.50
2023-03-29T06:11:13.355Z,6.50
2023-03-29T06:13:42.141Z,6.60
2023-03-29T06:16:10.666Z,6.80
2023-03-29T06:18:40.240Z,6.90
2023-03-29T06:21:09.050Z,7.10
2023-03-29T06:23:36.370Z,7.10
2023-03-29T06:26:03.416Z,7.20
2023-03-29T06:28:30.627Z,7.40
2023-03-29T06:31:02.701Z,7.50
2023-03-29T06:33:30.801Z,7.60
2023-03-29T06:35:58.003Z,7.70
2023-03-29T06:38:26.789Z,7.80
2023-03-29T06:41:02.242Z,7.90
2023-03-29T06:43:29.110Z,7.90
2023-03-29T06:45:55.785Z,8.00
2023-03-29T06:48:22.759Z,8.10
2023-03-29T06:50:49.685Z,8.10
2023-03-29T06:53:17.010Z,8.20
2023-03-29T06:55:43.725Z,8.10
2023-03-29T06:58:11.057Z,8.20
2023-03-29T07:00:39.251Z,8.40
2023-03-29T07:03:09.851Z,8.40
2023-03-29T07:05:40.685Z,8.50
2023-03-29T07:08:08.322Z,8.60
2023-03-29T07:10:41.174Z,8.60
2023-03-29T07:13:12.122Z,8.80
2023-03-29T07:15:43.385Z,8.90
2023-03-29T07:18:12.500Z,9.00
2023-03-29T07:20:40.360Z,9.20
2023-03-29T07:23:09.124Z,9.20
2023-03-29T07:25:36.562Z,9.30
2023-03-29T07:28:03.576Z,9.20
2023-03-29T07:30:33.092Z,9.30
2023-03-29T07:33:00.505Z,9.30
2023-03-29T07:35:27.787Z,9.30
2023-03-29T07:37:58.429Z,9.40
2023-03-29T07:40:26.052Z,9.40
2023-03-29T07:42:55.217Z,9.50
2023-03-29T07:45:26.556Z,9.50
2023-03-29T07:47:59.497Z,9.70
2023-03-29T07:50:32.576Z,10.00
2023-03-29T07:53:01.194Z,10.20
2023-03-29T07:55:27.910Z,10.40
2023-03-29T07:57:55.230Z,10.60
2023-03-29T08:00:24.641Z,10.60
2023-03-29T08:02:52.401Z,10.60
2023-03-29T08:05:29.193Z,10.50
2023-03-29T08:08:05.309Z,10.40
2023-03-29T08:10:34.148Z,10.50
2023-03-29T08:13:03.738Z,10.50
2023-03-29T08:15:30.582Z,10.50
2023-03-29T08:17:57.398Z,10.50
2023-03-29T08:20:24.070Z,10.60
2023-03-29T08:22:50.837Z,10.70
2023-03-29T08:25:17.729Z,10.80
2023-03-29T08:27:44.781Z,11.00
2023-03-29T08:30:12.081Z,11.20
2023-03-29T08:32:39.242Z,11.30
2023-03-29T08:35:08.713Z,11.30
2023-03-29T08:37:36.377Z,11.40
2023-03-29T08:40:04.307Z,11.30
2023-03-29T08:42:43.343Z,11.30
2023-03-29T08:45:25.978Z,11.40
2023-03-29T08:47:55.818Z,11.50
2023-03-29T08:50:44.396Z,11.60
2023-03-29T08:53:22.626Z,11.80
2023-03-29T08:55:52.850Z,12.00
2023-03-29T08:58:24.890Z,12.00
2023-03-29T09:00:55.395Z,12.30
2023-03-29T09:03:26.228Z,12.60
2023-03-29T09:06:08.852Z,12.70
2023-03-29T09:08:46.260Z,12.60
2023-03-29T09:11:19.056Z,12.50
2023-03-29T09:13:54.681Z,12.50
2023-03-29T09:16:56.084Z,12.80
2023-03-29T09:19:26.324Z,13.10
2023-03-29T09:21:59.587Z,13.20
2023-03-29T09:24:38.594Z,13.50
2023-03-29T09:27:16.652Z,13.60
2023-03-29T09:30:04.657Z,13.70
2023-03-29T09:32:42.892Z,13.60
2023-03-29T09:35:26.104Z,13.60
2023-03-29T09:37:54.594Z,14.20
2023-03-29T09:40:34.130Z,14.10
2023-03-29T09:43:04.087Z,14.10
2023-03-29T09:45:31.495Z,14.30
2023-03-29T09:48:07.790Z,14.50
2023-03-29T09:50:44.486Z,14.70
2023-03-29T09:53:11.307Z,14.60
2023-03-29T09:55:40.127Z,14.60
2023-03-29T09:58:33.211Z,14.40
2023-03-29T10:01:03.108Z,14.60
2023-03-29T10:03:33.558Z,14.90
2023-03-29T10:06:03.006Z,15.30
2023-03-29T10:08:35.942Z,15.30
2023-03-29T10:11:30.485Z,15.50
2023-03-29T10:14:02.108Z,15.40
2023-03-29T10:16:33.520Z,15.40
2023-03-29T10:19:36.977Z,15.60
2023-03-29T10:22:21.847Z,15.70
2023-03-29T10:24:52.072Z,15.60
2023-03-29T10:27:27.925Z,15.30
2023-03-29T10:29:56.521Z,15.00
2023-03-29T10:32:27.739Z,14.90
2023-03-29T10:34:55.145Z,14.80
2023-03-29T10:37:23.347Z,14.50
2023-03-29T10:39:50.595Z,14.30
2023-03-29T10:42:19.513Z,14.30
2023-03-29T10:44:57.772Z,14.30
2023-03-29T10:47:25.591Z,14.50
2023-03-29T10:49:58.864Z,14.20
2023-03-29T10:52:26.117Z,14.30
2023-03-29T10:54:54.849Z,14.20
2023-03-29T10:57:48.846Z,14.30
2023-03-29T11:00:20.330Z,14.70
2023-03-29T11:03:17.056Z,14.70
2023-03-29T11:05:52.191Z,14.40
2023-03-29T11:08:38.562Z,14.10
2023-03-29T11:11:41.165Z,14.20
2023-03-29T11:14:19.112Z,14.50
2023-03-29T11:17:03.968Z,14.90
2023-03-29T11:19:49.110Z,14.80
2023-03-29T11:22:36.456Z,14.80
2023-03-29T11:25:23.380Z,14.90
2023-03-29T11:28:11.093Z,14.80
2023-03-29T11:30:59.628Z,15.00
2023-03-29T11:33:29.454Z,15.20
2023-03-29T11:36:16.668Z,15.40
2023-03-29T11:39:24.566Z,15.30
2023-03-29T11:41:57.101Z,15.60
2023-03-29T11:44:35.583Z,15.60
2023-03-29T11:47:10.882Z,15.60
2023-03-29T11:49:42.333Z,15.60
2023-03-29T11:52:33.647Z,15.80
2023-03-29T11:55:13.731Z,15.40
2023-03-29T11:57:47.849Z,15.30
2023-03-29T12:00:39.917Z,15.30
2023-03-29T12:03:09.647Z,15.60
2023-03-29T12:05:48.982Z,15.60
2023-03-29T12:08:24.230Z,15.30
2023-03-29T12:11:11.917Z,15.10
2023-03-29T12:13:47.410Z,14.80
2023-03-29T12:16:24.956Z,14.70
2023-03-29T12:18:56.712Z,14.60
2023-03-29T12:21:26.367Z,14.80
2023-03-29T12:23:53.265Z,14.70
2023-03-29T12:26:41.736Z,14.50
2023-03-29T12:29:36.432Z,14.40
2023-03-29T12:32:27.975Z,14.60
2023-03-29T12:35:18.861Z,14.80
2023-03-29T12:38:03.043Z,14.80
2023-03-29T12:40:40.430Z,14.80
2023-03-29T12:43:14.281Z,14.80
2023-03-29T12:45:49.290Z,14.60
2023-03-29T12:48:19.756Z,14.50
2023-03-29T12:51:00.878Z,14.40
2023-03-29T12:53:33.360Z,14.30
2023-03-29T12:56:03.718Z,14.30
2023-03-29T12:58:36.391Z,14.30
2023-03-29T13:01:21.423Z,14.20
2023-03-29T13:03:56.046Z,14.10
2023-03-29T13:06:56.242Z,14.20
2023-03-29T13:09:29.731Z,14.30
2023-03-29T13:12:11.574Z,14.20
2023-03-29T13:14:42.932Z,14.50
2023-03-29T13:17:40.932Z,14.30
2023-03-29T13:20:42.758Z,14.30
2023-03-29T13:23:45.589Z,14.50
2023-03-29T13:26:24.477Z,14.30
2023-03-29T13:29:02.289Z,13.90
2023-03-29T13:31:40.730Z,14.00
2023-03-29T13:34:47.452Z,14.10
2023-03-29T13:37:27.229Z,14.00
2023-03-29T13:39:55.553Z,14.10
2023-03-29T13:42:34.346Z,14.00
2023-03-29T13:45:22.749Z,13.90
2023-03-29T13:50:33.165Z,14.30
2023-03-29T13:53:10.042Z,14.80
2023-03-29T13:55:48.489Z,15.10
2023-03-29T13:58:39.327Z,15.20
2023-03-29T14:01:35.367Z,15.20
2023-03-29T14:04:04.451Z,14.90
2023-03-29T14:06:37.467Z,14.90
2023-03-29T14:09:08.351Z,15.00
2023-03-29T14:11:36.392Z,15.10
2023-03-29T14:14:10.825Z,15.30
2023-03-29T14:16:39.993Z,15.60
2023-03-29T14:19:18.932Z,15.80
2023-03-29T14:21:46.329Z,15.90
2023-03-29T14:24:20.568Z,16.30
2023-03-29T14:26:47.842Z,16.50
2023-03-29T14:29:14.814Z,16.60
2023-03-29T14:31:42.502Z,16.20
2023-03-29T14:34:16.971Z,16.30
2023-03-29T14:36:49.241Z,16.20
2023-03-29T14:39:21.744Z,16.50
2023-03-29T14:41:59.403Z,16.60
2023-03-29T14:44:32.991Z,16.80
2023-03-29T14:47:01.544Z,16.80
2023-03-29T14:49:29.029Z,16.60
2023-03-29T14:51:56.704Z,16.70
2023-03-29T14:54:29.233Z,16.60
2023-03-29T14:56:56.360Z,16.60
2023-03-29T14:59:36.504Z,16.50
2023-03-29T15:02:03.906Z,16.80
2023-03-29T15:04:37.410Z,16.90
2023-03-29T15:07:05.067Z,16.80
2023-03-29T15:09:34.690Z,17.00
2023-03-29T15:12:02.873Z,16.90
2023-03-29T15:14:33.908Z,16.90
2023-03-29T15:17:49.440Z,16.90
2023-03-29T15:20:29.950Z,17.00
2023-03-29T15:22:59.400Z,16.50
2023-03-29T15:25:32.842Z,16.70
2023-03-29T15:28:01.413Z,16.70
2023-03-29T15:31:07.396Z,16.70
2023-03-29T15:33:48.932Z,16.60
2023-03-29T15:36:24.652Z,16.60
2023-03-29T15:39:43.278Z,16.40
2023-03-29T15:42:10.370Z,16.10
2023-03-29T15:44:38.709Z,16.10
2023-03-29T15:47:12.051Z,16.00
2023-03-29T15:49:39.158Z,15.90
2023-03-29T15:52:06.262Z,15.70
2023-03-29T15:54:33.723Z,15.50
2023-03-29T15:57:11.767Z,15.50
2023-03-29T15:59:38.534Z,15.40
2023-03-29T16:02:05.589Z,15.30
2023-03-29T16:04:32.462Z,15.20
2023-03-29T16:06:59.405Z,15.20
2023-03-29T16:09:26.186Z,15.30
2023-03-29T16:11:52.874Z,15.30
2023-03-29T16:14:33.958Z,15.40
2023-03-29T16:17:01.555Z,15.40
2023-03-29T16:19:30.918Z,15.50
2023-03-29T16:21:58.269Z,15.60
2023-03-29T16:24:28.057Z,15.60
2023-03-29T16:26:56.521Z,15.60
2023-03-29T16:29:24.708Z,15.60
2023-03-29T16:31:52.596Z,15.50
2023-03-29T16:34:19.990Z,15.50
2023-03-29T16:36:47.842Z,15.50
2023-03-29T16:39:15.142Z,15.50
2023-03-29T16:41:42.887Z,15.40
2023-03-29T16:44:16.027Z,15.20
2023-03-29T16:46:43.012Z,15.20
2023-03-29T16:49:17.883Z,15.00
2023-03-29T16:51:53.985Z,14.80
2023-03-29T16:54:20.891Z,14.70
2023-03-29T16:56:47.964Z,14.60
2023-03-29T16:59:15.174Z,14.50
2023-03-29T17:01:42.091Z,14.50
2023-03-29T17:04:09.382Z,14.30
2023-03-29T17:06:36.510Z,14.30
2023-03-29T17:09:05.256Z,14.30
2023-03-29T17:11:32.167Z,14.20
2023-03-29T17:13:59.079Z,14.10
2023-03-29T17:16:28.861Z,14.00
2023-03-29T17:18:58.571Z,14.00
2023-03-29T17:21:26.374Z,13.90
2023-03-29T17:23:53.141Z,13.80
2023-03-29T17:26:20.103Z,13.70
2023-03-29T17:28:46.744Z,13.60
2023-03-29T17:31:13.647Z,13.50
2023-03-29T17:33:40.731Z,13.40
2023-03-29T17:36:08.217Z,13.30
2023-03-29T17:38:35.747Z,13.30
2023-03-29T17:41:03.767Z,13.20
2023-03-29T17:43:30.760Z,13.20
2023-03-29T17:45:57.461Z,13.10
2023-03-29T17:48:24.728Z,13.10
2023-03-29T17:50:51.759Z,13.10
2023-03-29T17:53:18.504Z,13.00
2023-03-29T17:55:45.791Z,13.00
2023-03-29T17:58:17.435Z,13.00
2023-03-29T18:00:44.136Z,12.90
2023-03-29T18:03:11.550Z,12.90
2023-03-29T18:05:38.412Z,12.80
2023-03-29T18:08:05.382Z,12.80
2023-03-29T18:10:32.466Z,12.70
2023-03-29T18:12:59.293Z,12.70
2023-03-29T18:15:26.252Z,12.70
2023-03-29T18:17:53.004Z,12.60
2023-03-29T18:20:20.746Z,12.60
2023-03-29T18:22:47.494Z,12.60
2023-03-29T18:25:14.650Z,12.50
2023-03-29T18:27:41.437Z,12.50
2023-03-29T18:30:16.618Z,12.40
2023-03-29T18:32:43.394Z,12.40
2023-03-29T18:35:10.587Z,12.30
2023-03-29T18:37:37.370Z,12.30
2023-03-29T18:40:08.068Z,12.30
2023-03-29T18:42:34.809Z,12.20
2023-03-29T18:45:02.065Z,12.10
2023-03-29T18:47:29.153Z,12.10
2023-03-29T18:49:56.063Z,12.10
2023-03-29T18:52:23.386Z,12.10
2023-03-29T18:54:50.387Z,12.10
2023-03-29T18:57:17.135Z,12.10
2023-03-29T18:59:43.835Z,12.10
2023-03-29T19:02:10.610Z,12.10
2023-03-29T19:04:37.391Z,12.10
2023-03-29T19:07:18.874Z,12.10
2023-03-29T19:09:45.931Z,12.10
2023-03-29T19:12:12.627Z,12.00
2023-03-29T19:14:39.415Z,12.00
2023-03-29T19:17:06.284Z,11.90
2023-03-29T19:19:33.056Z,11.90
2023-03-29T19:22:00.786Z,11.90
2023-03-29T19:24:27.702Z,11.90
2023-03-29T19:26:54.553Z,11.80
2023-03-29T19:29:21.625Z,11.80
2023-03-29T19:31:48.387Z,11.70
2023-03-29T19:34:15.602Z,11.70
2023-03-29T19:36:42.313Z,11.70
2023-03-29T19:39:09.027Z,11.60
2023-03-29T19:41:35.701Z,11.60
2023-03-29T19:44:02.572Z,11.60
2023-03-29T19:46:29.383Z,11.60
2023-03-29T19:48:56.226Z,11.60
2023-03-29T19:51:23.553Z,11.60
2023-03-29T19:53:50.379Z,11.60
2023-03-29T19:56:17.864Z,11.60
2023-03-29T19:58:44.626Z,11.60
2023-03-29T20:01:11.392Z,11.60
2023-03-29T20:03:39.045Z,11.50
2023-03-29T20:06:08.030Z,11.50
2023-03-29T20:08:38.624Z,11.50
2023-03-29T20:11:10.198Z,11.50
2023-03-29T20:13:41.399Z,11.50
2023-03-29T20:16:10.822Z,11.50
2023-03-29T20:18:38.330Z,11.50
2023-03-29T20:21:06.275Z,11.50
2023-03-29T20:23:33.340Z,11.50
2023-03-29T20:26:00.272Z,11.60
2023-03-29T20:28:27.125Z,11.70
2023-03-29T20:30:53.976Z,11.70
2023-03-29T20:33:22.017Z,11.70
2023-03-29T20:35:49.380Z,11.80
2023-03-29T20:38:16.367Z,11.90
2023-03-29T20:40:43.166Z,11.90
2023-03-29T20:43:13.464Z,11.90
2023-03-29T20:45:52.706Z,11.90
2023-03-29T20:48:23.054Z,11.90
2023-03-29T20:50:50.617Z,11.80
2023-03-29T20:53:18.574Z,11.90
2023-03-29T20:55:45.523Z,11.90
2023-03-29T20:58:12.400Z,12.00
2023-03-29T21:00:40.458Z,12.00
2023-03-29T21:03:08.334Z,12.00
2023-03-29T21:05:35.766Z,12.10
2023-03-29T21:08:04.315Z,12.10
2023-03-29T21:10:41.681Z,12.10
2023-03-29T21:13:08.380Z,12.20
2023-03-29T21:15:35.261Z,12.20
2023-03-29T21:18:02.191Z,12.30
2023-03-29T21:20:28.992Z,12.30
2023-03-29T21:22:55.949Z,12.30
2023-03-29T21:25:22.729Z,12.40
2023-03-29T21:27:49.413Z,12.40
2023-03-29T21:30:16.359Z,12.60
2023-03-29T21:32:43.074Z,12.60
2023-03-29T21:35:10.448Z,12.60
2023-03-29T21:37:37.464Z,12.60
2023-03-29T21:40:05.892Z,12.60
2023-03-29T21:42:53.015Z,12.60
2023-03-29T21:45:19.700Z,12.70
2023-03-29T21:47:46.388Z,12.70
2023-03-29T21:50:13.181Z,12.70
2023-03-29T21:52:39.871Z,12.70
2023-03-29T21:55:09.356Z,12.70
2023-03-29T21:57:36.109Z,12.80
2023-03-29T22:00:05.266Z,12.80
2023-03-29T22:02:32.167Z,12.90
2023-03-29T22:04:58.915Z,12.90
2023-03-29T22:07:25.509Z,13.00
2023-03-29T22:09:52.212Z,13.00
2023-03-29T22:12:18.888Z,13.00
2023-03-29T22:14:45.599Z,13.10
2023-03-29T22:17:12.329Z,13.10
2023-03-29T22:19:39.574Z,13.10
2023-03-29T22:22:07.263Z,13.20
2023-03-29T22:24:33.968Z,13.20
2023-03-29T22:27:00.749Z,13.20
2023-03-29T22:29:30.256Z,13.20
2023-03-29T22:31:56.978Z,13.20
2023-03-29T22:34:23.720Z,13.30
2023-03-29T22:36:51.641Z,13.30
2023-03-29T22:39:18.290Z,13.30
2023-03-29T22:41:45.020Z,13.30
2023-03-29T22:44:11.742Z,13.30
2023-03-29T22:46:38.512Z,13.30
2023-03-29T22:49:05.985Z,13.30
2023-03-29T22:51:32.593Z,13.40
2023-03-29T22:53:59.306Z,13.40
2023-03-29T22:56:27.039Z,13.50
2023-03-29T22:58:53.742Z,13.50
2023-03-29T23:01:20.624Z,13.50
2023-03-29T23:03:47.425Z,13.40
2023-03-29T23:06:14.146Z,13.50
2023-03-29T23:08:40.926Z,13.60
2023-03-29T23:11:07.755Z,13.60
2023-03-29T23:13:35.104Z,13.70
2023-03-29T23:16:03.672Z,13.70
2023-03-29T23:18:34.499Z,13.80
2023-03-29T23:21:01.655Z,13.90
2023-03-29T23:23:28.975Z,14.00
2023-03-29T23:25:55.933Z,14.10
2023-03-29T23:28:27.016Z,14.10
2023-03-29T23:31:00.341Z,14.00
2023-03-29T23:33:28.571Z,14.00
2023-03-29T23:35:58.260Z,14.10
2023-03-29T23:38:24.961Z,14.10
2023-03-29T23:41:17.530Z,14.10
2023-03-29T23:43:47.052Z,14.10
2023-03-29T23:46:16.334Z,14.10
2023-03-29T23:48:50.198Z,14.10
2023-03-29T23:51:18.663Z,14.00
2023-03-29T23:53:54.888Z,14.00
2023-03-29T23:56:22.871Z,14.10
2023-03-29T23:58:49.851Z,14.20
